SILO ALERT LOG
| Silo ID | Alert Type | Alert Message | Silo Type | Points | Depth (mm) | Strength | Temperature (°C) | Humidity (%) | Height (mm) | Volume (㎥) | Weight (t) | Flag | Time |
|---|---|---|---|---|---|---|---|---|---|---|---|---|---|
| WJWJR01 | Humidity | 습도센서 측정값이 80% 초과 | 평 | 72 | 4130 | 2613 | 24.3 | 80.1 | 3510 | 396.972 | 250.965 | 0 | 2026-06-24 09:26:26.000 |
| WJWJR01 | Humidity | 습도센서 측정값이 80% 초과 | 평 | 70 | 4160 | 2635 | 23.1 | 82.4 | 3479 | 393.579 | 248.82 | 0 | 2026-06-24 08:26:23.000 |
| WJWJR01 | Humidity | 습도센서 측정값이 80% 초과 | 평 | 72 | 4030 | 2662 | 21.9 | 83.5 | 3609 | 408.281 | 258.115 | 0 | 2026-06-24 07:26:25.000 |
| WJWJR01 | Humidity | 습도센서 측정값이 80% 초과 | 평 | 73 | 4060 | 2639 | 21.6 | 83.6 | 3580 | 404.888 | 255.97 | 0 | 2026-06-24 06:26:29.000 |
| WJWJR01 | Humidity | 습도센서 측정값이 80% 초과 | 평 | 62 | 4140 | 2632 | 21.8 | 83.1 | 3500 | 395.841 | 250.25 | 0 | 2026-06-24 05:26:24.000 |
| WJWJR01 | Humidity | 습도센서 측정값이 80% 초과 | 평 | 71 | 4050 | 2619 | 22.2 | 82.4 | 3590 | 406.019 | 256.685 | 0 | 2026-06-24 04:26:27.000 |
| WJWJR01 | Humidity | 습도센서 측정값이 80% 초과 | 평 | 72 | 4120 | 2616 | 22.5 | 81.9 | 3519 | 398.103 | 251.68 | 0 | 2026-06-24 03:26:29.000 |
| WJWJR01 | Humidity | 습도센서 측정값이 80% 초과 | 평 | 72 | 4040 | 2618 | 22.9 | 81.1 | 3599 | 407.15 | 257.4 | 0 | 2026-06-24 02:26:28.000 |
| WJWJR01 | Humidity | 습도센서 측정값이 80% 초과 | 평 | 58 | 4160 | 2617 | 23.4 | 80.3 | 3479 | 393.579 | 248.82 | 0 | 2026-06-24 01:26:25.000 |
| WJWJR01 | Humidity | 습도센서 측정값이 80% 초과 | 평 | 59 | 3540 | 3328 | 23.8 | 82.9 | 4100 | 463.699 | 293.151 | 0 | 2026-06-23 07:26:23.000 |
| WJWJR01 | Humidity | 습도센서 측정값이 80% 초과 | 평 | 67 | 3510 | 3325 | 23.4 | 83.3 | 4130 | 467.092 | 295.296 | 0 | 2026-06-23 06:26:22.000 |
| WJWJR01 | Humidity | 습도센서 측정값이 80% 초과 | 평 | 67 | 3530 | 3327 | 23.5 | 83.1 | 4109 | 464.83 | 293.866 | 0 | 2026-06-23 05:26:30.000 |
| WJWJR01 | Humidity | 습도센서 측정값이 80% 초과 | 평 | 59 | 3550 | 3309 | 23.8 | 82.8 | 4090 | 462.568 | 292.436 | 0 | 2026-06-23 04:26:27.000 |
| WJWJR01 | Humidity | 습도센서 측정값이 80% 초과 | 평 | 64 | 3460 | 3300 | 24 | 82.5 | 4180 | 472.747 | 298.871 | 0 | 2026-06-23 03:26:37.000 |
| WJWJR01 | Humidity | 습도센서 측정값이 80% 초과 | 평 | 55 | 3530 | 3283 | 24.4 | 82.1 | 4109 | 464.83 | 293.866 | 0 | 2026-06-23 02:26:27.000 |
| WJWJR01 | Humidity | 습도센서 측정값이 80% 초과 | 평 | 71 | 3440 | 3238 | 24.8 | 81.4 | 4199 | 475.009 | 300.301 | 0 | 2026-06-23 01:26:37.000 |
| WJWJR01 | Humidity | 습도센서 측정값이 80% 초과 | 평 | 61 | 3430 | 3197 | 25.3 | 80.8 | 4209 | 476.14 | 301.016 | 0 | 2026-06-23 00:26:38.000 |
| WJWJR01 | Humidity | 습도센서 측정값이 80% 초과 | 평 | 55 | 2100 | 2711 | 22.9 | 82.5 | 5539 | 626.559 | 396.111 | 0 | 2026-06-22 08:26:29.000 |
| WJWJR01 | Humidity | 습도센서 측정값이 80% 초과 | 평 | 62 | 3490 | 3358 | 22.4 | 82.8 | 4149 | 469.354 | 296.726 | 0 | 2026-06-22 07:26:18.000 |
| WJWJR01 | Humidity | 습도센서 측정값이 80% 초과 | 평 | 61 | 3480 | 3353 | 22.3 | 83 | 4160 | 470.485 | 297.441 | 0 | 2026-06-22 06:26:23.000 |
[첫 페이지] [41] [42] [43] [44] 45 [46] [47] [48] [49] [마지막 페이지]